createdAt,value
2022-11-06T00:00:09.100Z,11.23
2022-11-06T00:05:27.841Z,11.65
2022-11-06T00:10:31.881Z,10.43
2022-11-06T00:15:32.917Z,11.50
2022-11-06T00:20:33.713Z,11.82
2022-11-06T00:25:36.218Z,9.32
2022-11-06T00:30:37.210Z,15.60
2022-11-06T00:35:38.925Z,13.75
2022-11-06T00:40:41.087Z,10.93
2022-11-06T00:45:41.900Z,10.52
2022-11-06T00:50:42.699Z,10.98
2022-11-06T00:55:44.902Z,12.07
2022-11-06T01:00:45.669Z,10.45
2022-11-06T01:05:46.532Z,10.80
2022-11-06T01:10:49.024Z,11.85
2022-11-06T01:15:50.077Z,11.13
2022-11-06T01:20:50.842Z,9.82
2022-11-06T01:26:03.190Z,13.00
2022-11-06T01:31:04.826Z,16.73
2022-11-06T01:36:06.960Z,10.30
2022-11-06T01:41:09.852Z,10.77
2022-11-06T01:46:11.082Z,9.98
2022-11-06T01:51:13.156Z,12.82
2022-11-06T01:56:16.318Z,12.73
2022-11-06T02:01:17.164Z,13.85
2022-11-06T02:06:18.297Z,10.98
2022-11-06T02:11:20.467Z,12.52
2022-11-06T02:16:28.247Z,17.50
2022-11-06T02:22:01.102Z,12.98
2022-11-06T02:27:11.455Z,13.00
2022-11-06T02:32:17.053Z,15.20
2022-11-06T02:37:21.832Z,10.90
2022-11-06T02:42:27.501Z,12.23
2022-11-06T02:47:32.847Z,14.23
2022-11-06T02:52:38.201Z,10.18
2022-11-06T02:57:44.778Z,11.88
2022-11-06T03:02:51.917Z,12.85
2022-11-06T03:07:56.223Z,11.93
2022-11-06T03:13:01.626Z,14.57
2022-11-06T03:18:11.161Z,11.85
2022-11-06T03:23:19.146Z,12.88
2022-11-06T03:28:26.608Z,14.50
2022-11-06T03:33:35.123Z,13.98
2022-11-06T03:38:42.603Z,11.88
2022-11-06T03:43:48.983Z,13.95
2022-11-06T03:48:53.417Z,11.80
2022-11-06T03:54:00.280Z,12.10
2022-11-06T03:59:05.505Z,11.43
2022-11-06T04:04:12.880Z,12.88
2022-11-06T04:09:35.206Z,12.32
2022-11-06T04:14:40.567Z,11.75
2022-11-06T04:19:47.773Z,15.50
2022-11-06T04:25:18.541Z,14.30
2022-11-06T04:30:22.984Z,10.90
2022-11-06T04:35:32.593Z,11.38
2022-11-06T04:40:43.059Z,10.93
2022-11-06T04:45:49.583Z,14.70
2022-11-06T04:50:55.128Z,13.68
2022-11-06T04:56:00.863Z,13.45
2022-11-06T05:01:03.123Z,13.88
2022-11-06T05:06:03.970Z,16.70
2022-11-06T05:11:04.842Z,16.23
2022-11-06T05:16:07.587Z,16.70
2022-11-06T05:21:26.360Z,16.45
2022-11-06T05:26:27.193Z,15.77
2022-11-06T05:31:29.346Z,21.60
2022-11-06T05:36:30.219Z,13.98
2022-11-06T05:41:30.999Z,15.55
2022-11-06T05:46:48.311Z,17.38
2022-11-06T05:51:49.803Z,17.83
2022-11-06T05:56:50.755Z,15.95
2022-11-06T06:01:53.079Z,19.52
2022-11-06T06:06:54.133Z,16.70
2022-11-06T06:11:55.534Z,17.58
2022-11-06T06:16:57.667Z,21.88
2022-11-06T06:21:58.444Z,16.95
2022-11-06T06:26:59.335Z,18.70
2022-11-06T06:32:01.675Z,18.15
2022-11-06T06:37:02.559Z,21.35
2022-11-06T06:42:03.459Z,17.80
2022-11-06T06:47:06.697Z,17.58
2022-11-06T06:52:07.890Z,17.85
2022-11-06T06:57:09.409Z,14.55
2022-11-06T07:02:11.962Z,16.35
2022-11-06T07:07:13.312Z,19.45
2022-11-06T07:12:14.554Z,16.73
2022-11-06T07:17:16.914Z,18.83
2022-11-06T07:22:21.684Z,18.95
2022-11-06T07:27:29.114Z,18.60
2022-11-06T07:32:31.390Z,13.95
2022-11-06T07:37:32.193Z,18.25
2022-11-06T07:42:32.997Z,23.17
2022-11-06T07:47:39.328Z,16.48
2022-11-06T07:52:40.199Z,18.05
2022-11-06T07:57:41.452Z,17.50
2022-11-06T08:02:43.813Z,19.17
2022-11-06T08:07:44.699Z,20.27
2022-11-06T08:12:47.311Z,19.83
2022-11-06T08:17:49.512Z,17.42
2022-11-06T08:22:50.394Z,19.42
2022-11-06T08:27:51.178Z,18.63
2022-11-06T08:32:53.731Z,22.08
2022-11-06T08:37:54.679Z,24.73
2022-11-06T08:43:00.282Z,20.60
2022-11-06T08:48:04.323Z,22.15
2022-11-06T08:53:06.637Z,20.00
2022-11-06T08:58:08.104Z,15.98
2022-11-06T09:03:13.389Z,16.52
2022-11-06T09:08:16.082Z,15.75
2022-11-06T09:13:17.680Z,19.35
2022-11-06T09:18:20.018Z,17.25
2022-11-06T09:23:20.829Z,18.05
2022-11-06T09:28:21.713Z,16.95
2022-11-06T09:33:24.074Z,15.02
2022-11-06T09:38:24.953Z,16.80
2022-11-06T09:44:05.009Z,15.63
2022-11-06T09:49:17.827Z,13.90
2022-11-06T09:54:22.785Z,17.05
2022-11-06T09:59:24.042Z,12.95
2022-11-06T10:04:54.173Z,12.98
2022-11-06T10:09:55.340Z,15.55
2022-11-06T10:15:04.641Z,13.80
2022-11-06T10:20:14.352Z,11.40
2022-11-06T10:25:22.080Z,14.48
2022-11-06T10:30:23.070Z,10.07
2022-11-06T10:35:27.946Z,10.77
2022-11-06T10:40:32.752Z,8.68
2022-11-06T10:45:39.860Z,13.13
2022-11-06T10:50:51.288Z,12.70
2022-11-06T10:56:11.309Z,7.68
2022-11-06T11:01:15.545Z,7.15
2022-11-06T11:06:18.662Z,5.97
2022-11-06T11:11:25.583Z,6.47
2022-11-06T11:16:29.303Z,5.75
2022-11-06T11:21:31.504Z,4.97
2022-11-06T11:26:34.784Z,5.20
2022-11-06T11:31:37.230Z,4.57
2022-11-06T11:36:55.667Z,6.07
2022-11-06T11:42:18.115Z,4.43
2022-11-06T11:47:24.437Z,5.30
2022-11-06T11:52:26.658Z,6.30
2022-11-06T11:57:28.606Z,8.32
2022-11-06T12:02:35.823Z,15.48
2022-11-06T12:07:46.278Z,8.32
2022-11-06T12:12:51.001Z,7.35
2022-11-06T12:17:55.528Z,8.63
2022-11-06T12:23:01.106Z,6.20
2022-11-06T12:28:04.871Z,3.53
2022-11-06T12:33:12.977Z,5.95
2022-11-06T12:38:22.160Z,6.05
2022-11-06T12:43:31.164Z,2.83
2022-11-06T12:48:52.169Z,5.55
2022-11-06T12:54:06.727Z,3.15
2022-11-06T12:59:22.644Z,4.82
2022-11-06T13:04:33.662Z,4.28
2022-11-06T13:09:42.916Z,4.25
2022-11-06T13:14:54.895Z,6.03
2022-11-06T13:20:04.033Z,6.40
2022-11-06T13:25:13.515Z,5.32
2022-11-06T13:30:18.028Z,5.38
2022-11-06T13:35:22.826Z,5.00
2022-11-06T13:40:31.001Z,4.72
2022-11-06T13:45:39.005Z,5.65
2022-11-06T13:50:48.584Z,12.70
2022-11-06T13:56:01.609Z,7.90
2022-11-06T14:01:12.893Z,9.65
2022-11-06T14:06:19.835Z,12.80
2022-11-06T14:11:27.895Z,12.52
2022-11-06T14:16:31.681Z,18.50
2022-11-06T14:21:51.829Z,22.20
2022-11-06T14:26:54.116Z,16.63
2022-11-06T14:32:02.226Z,18.42
2022-11-06T14:37:46.769Z,20.23
2022-11-06T14:42:49.283Z,15.77
2022-11-06T14:47:54.424Z,15.57
2022-11-06T14:52:58.032Z,16.60
2022-11-06T14:58:13.547Z,16.63
2022-11-06T15:03:30.459Z,17.42
2022-11-06T15:08:54.469Z,17.77
2022-11-06T15:13:56.748Z,19.63
2022-11-06T15:18:57.775Z,19.27
2022-11-06T15:24:05.585Z,20.23
2022-11-06T15:29:19.160Z,20.58
2022-11-06T15:34:29.202Z,19.55
2022-11-06T15:39:39.223Z,25.65
2022-11-06T15:44:43.828Z,20.85
2022-11-06T15:49:44.690Z,18.70
2022-11-06T15:54:48.776Z,23.38
2022-11-06T15:59:51.476Z,22.42
2022-11-06T16:04:53.321Z,22.85
2022-11-06T16:09:54.513Z,20.63
2022-11-06T16:14:56.729Z,24.00
2022-11-06T16:20:00.227Z,23.98
2022-11-06T16:25:04.041Z,23.90
2022-11-06T16:30:25.515Z,23.75
2022-11-06T16:35:35.343Z,24.48
2022-11-06T16:40:50.547Z,27.30
2022-11-06T16:45:58.479Z,28.20
2022-11-06T16:51:01.709Z,27.20
2022-11-06T16:56:04.447Z,27.17
2022-11-06T17:01:07.938Z,29.08
2022-11-06T17:06:21.293Z,29.52
2022-11-06T17:11:23.306Z,27.33
2022-11-06T17:16:27.413Z,31.65
2022-11-06T17:21:28.266Z,26.83
2022-11-06T17:26:31.583Z,31.00
2022-11-06T17:31:33.884Z,28.02
2022-11-06T17:36:36.927Z,30.08
2022-11-06T17:41:37.767Z,32.97
2022-11-06T17:46:42.325Z,32.22
2022-11-06T17:51:53.485Z,28.83
2022-11-06T17:56:55.017Z,38.80
2022-11-06T18:01:57.508Z,29.20
2022-11-06T18:06:58.971Z,32.08
2022-11-06T18:12:00.248Z,39.83
2022-11-06T18:17:02.622Z,36.95
2022-11-06T18:22:06.740Z,37.53
2022-11-06T18:27:08.040Z,34.45
2022-11-06T18:32:10.299Z,40.63
2022-11-06T18:37:11.166Z,35.67
2022-11-06T18:42:12.007Z,33.33
2022-11-06T18:47:15.201Z,34.70
2022-11-06T18:52:32.534Z,31.02
2022-11-06T18:57:36.943Z,33.05
2022-11-06T19:02:39.167Z,35.78
2022-11-06T19:07:40.063Z,36.47
2022-11-06T19:12:41.361Z,32.90
2022-11-06T19:17:43.671Z,33.28
2022-11-06T19:22:44.505Z,34.47
2022-11-06T19:27:45.364Z,35.15
2022-11-06T19:32:47.577Z,33.03
2022-11-06T19:37:48.395Z,29.02
2022-11-06T19:42:49.288Z,27.92
2022-11-06T19:47:52.030Z,33.47
2022-11-06T19:52:53.602Z,26.45
2022-11-06T19:57:54.544Z,30.58
2022-11-06T20:02:56.724Z,28.40
2022-11-06T20:07:57.612Z,29.00
2022-11-06T20:12:58.483Z,28.02
2022-11-06T20:18:00.736Z,25.30
2022-11-06T20:23:01.588Z,31.80
2022-11-06T20:28:02.392Z,24.73
2022-11-06T20:33:04.676Z,22.95
2022-11-06T20:38:05.872Z,25.70
2022-11-06T20:43:06.804Z,28.42
2022-11-06T20:48:10.648Z,24.45
2022-11-06T20:53:11.823Z,25.30
2022-11-06T20:58:12.759Z,24.10
2022-11-06T21:03:15.276Z,26.42
2022-11-06T21:08:16.317Z,25.80
2022-11-06T21:13:17.207Z,26.25
2022-11-06T21:18:19.375Z,28.42
2022-11-06T21:23:20.569Z,26.13
2022-11-06T21:28:21.606Z,22.08
2022-11-06T21:33:23.728Z,24.92
2022-11-06T21:38:24.666Z,24.15
2022-11-06T21:43:26.933Z,26.10
2022-11-06T21:48:45.114Z,25.98
2022-11-06T21:54:05.031Z,22.27
2022-11-06T21:59:08.391Z,23.23
2022-11-06T22:04:11.440Z,21.70
2022-11-06T22:09:14.305Z,20.63
2022-11-06T22:14:16.858Z,20.27
2022-11-06T22:19:19.173Z,18.92
2022-11-06T22:24:20.016Z,20.55
2022-11-06T22:29:20.833Z,19.63
2022-11-06T22:34:22.974Z,18.15
2022-11-06T22:39:23.829Z,23.13
2022-11-06T22:44:24.705Z,19.65
2022-11-06T22:49:26.922Z,18.40
2022-11-06T22:54:27.716Z,16.42
2022-11-06T22:59:28.514Z,18.95
2022-11-06T23:04:30.661Z,18.35
2022-11-06T23:09:31.459Z,17.92
2022-11-06T23:14:32.335Z,18.20
2022-11-06T23:19:35.035Z,18.60
2022-11-06T23:24:35.860Z,15.40
2022-11-06T23:29:36.653Z,17.50
2022-11-06T23:34:38.897Z,17.50
2022-11-06T23:39:39.670Z,17.08
2022-11-06T23:44:58.128Z,17.98
2022-11-06T23:50:00.741Z,17.55
2022-11-06T23:55:01.688Z,17.48
